sensor_id;sensor_type;location;lat;lon;timestamp;P1;durP1;ratioP1;P2;durP2;ratioP2
32611;SDS011;19030;49.478;8.986;2022-10-31T00:01:55;12.27;;;4.95;;
32611;SDS011;19030;49.478;8.986;2022-10-31T00:03:55;8.70;;;4.90;;
32611;SDS011;19030;49.478;8.986;2022-10-31T00:05:56;12.18;;;5.30;;
32611;SDS011;19030;49.478;8.986;2022-10-31T00:07:57;10.65;;;4.57;;
32611;SDS011;19030;49.478;8.986;2022-10-31T00:09:57;13.80;;;4.85;;
32611;SDS011;19030;49.478;8.986;2022-10-31T00:11:58;10.38;;;4.43;;
32611;SDS011;19030;49.478;8.986;2022-10-31T00:13:58;17.88;;;5.80;;
32611;SDS011;19030;49.478;8.986;2022-10-31T00:15:59;11.05;;;4.55;;
32611;SDS011;19030;49.478;8.986;2022-10-31T00:18:00;11.02;;;4.95;;
32611;SDS011;19030;49.478;8.986;2022-10-31T00:20:01;11.20;;;5.05;;
32611;SDS011;19030;49.478;8.986;2022-10-31T00:22:01;13.20;;;4.82;;
32611;SDS011;19030;49.478;8.986;2022-10-31T00:24:02;12.88;;;5.45;;
32611;SDS011;19030;49.478;8.986;2022-10-31T00:26:03;11.20;;;4.55;;
32611;SDS011;19030;49.478;8.986;2022-10-31T00:28:05;13.68;;;5.75;;
32611;SDS011;19030;49.478;8.986;2022-10-31T00:30:07;10.95;;;4.60;;
32611;SDS011;19030;49.478;8.986;2022-10-31T00:32:08;12.43;;;5.25;;
32611;SDS011;19030;49.478;8.986;2022-10-31T00:34:09;20.08;;;5.80;;
32611;SDS011;19030;49.478;8.986;2022-10-31T00:36:13;15.77;;;4.70;;
32611;SDS011;19030;49.478;8.986;2022-10-31T00:38:15;10.52;;;4.60;;
32611;SDS011;19030;49.478;8.986;2022-10-31T00:40:16;11.10;;;4.65;;
32611;SDS011;19030;49.478;8.986;2022-10-31T00:42:17;16.80;;;6.05;;
32611;SDS011;19030;49.478;8.986;2022-10-31T00:44:18;12.85;;;4.65;;
32611;SDS011;19030;49.478;8.986;2022-10-31T00:46:20;13.75;;;4.88;;
32611;SDS011;19030;49.478;8.986;2022-10-31T00:48:20;14.80;;;4.45;;
32611;SDS011;19030;49.478;8.986;2022-10-31T00:50:22;17.33;;;5.32;;
32611;SDS011;19030;49.478;8.986;2022-10-31T00:52:23;14.93;;;6.40;;
32611;SDS011;19030;49.478;8.986;2022-10-31T00:54:23;11.30;;;5.13;;
32611;SDS011;19030;49.478;8.986;2022-10-31T00:56:24;14.35;;;4.95;;
32611;SDS011;19030;49.478;8.986;2022-10-31T00:58:25;10.50;;;4.60;;
32611;SDS011;19030;49.478;8.986;2022-10-31T01:00:26;12.05;;;4.65;;
32611;SDS011;19030;49.478;8.986;2022-10-31T01:02:27;17.15;;;5.40;;
32611;SDS011;19030;49.478;8.986;2022-10-31T01:04:28;13.20;;;4.40;;
32611;SDS011;19030;49.478;8.986;2022-10-31T01:06:30;10.55;;;4.40;;
32611;SDS011;19030;49.478;8.986;2022-10-31T01:08:31;11.38;;;4.68;;
32611;SDS011;19030;49.478;8.986;2022-10-31T01:10:32;12.50;;;4.80;;
32611;SDS011;19030;49.478;8.986;2022-10-31T01:12:36;14.50;;;4.95;;
32611;SDS011;19030;49.478;8.986;2022-10-31T01:14:37;14.57;;;4.97;;
32611;SDS011;19030;49.478;8.986;2022-10-31T01:16:38;14.48;;;4.85;;
32611;SDS011;19030;49.478;8.986;2022-10-31T01:18:38;11.35;;;4.32;;
32611;SDS011;19030;49.478;8.986;2022-10-31T01:20:39;17.23;;;4.53;;
32611;SDS011;19030;49.478;8.986;2022-10-31T01:22:40;10.80;;;4.95;;
32611;SDS011;19030;49.478;8.986;2022-10-31T01:24:40;13.73;;;4.72;;
32611;SDS011;19030;49.478;8.986;2022-10-31T01:26:41;11.57;;;4.35;;
32611;SDS011;19030;49.478;8.986;2022-10-31T01:28:45;12.00;;;4.40;;
32611;SDS011;19030;49.478;8.986;2022-10-31T01:30:51;15.45;;;4.93;;
32611;SDS011;19030;49.478;8.986;2022-10-31T01:32:51;10.48;;;4.60;;
32611;SDS011;19030;49.478;8.986;2022-10-31T01:34:52;11.57;;;4.30;;
32611;SDS011;19030;49.478;8.986;2022-10-31T01:36:52;11.20;;;4.15;;
32611;SDS011;19030;49.478;8.986;2022-10-31T01:38:53;11.75;;;4.57;;
32611;SDS011;19030;49.478;8.986;2022-10-31T01:40:57;12.05;;;4.53;;
32611;SDS011;19030;49.478;8.986;2022-10-31T01:42:57;10.00;;;4.30;;
32611;SDS011;19030;49.478;8.986;2022-10-31T01:44:59;12.40;;;4.70;;
32611;SDS011;19030;49.478;8.986;2022-10-31T01:47:03;11.02;;;4.68;;
32611;SDS011;19030;49.478;8.986;2022-10-31T01:49:13;12.50;;;4.75;;
32611;SDS011;19030;49.478;8.986;2022-10-31T01:53:20;12.98;;;4.35;;
32611;SDS011;19030;49.478;8.986;2022-10-31T01:55:28;15.07;;;4.70;;
32611;SDS011;19030;49.478;8.986;2022-10-31T01:57:33;7.70;;;4.28;;
32611;SDS011;19030;49.478;8.986;2022-10-31T01:59:36;11.40;;;4.70;;
32611;SDS011;19030;49.478;8.986;2022-10-31T02:01:42;13.98;;;4.20;;
32611;SDS011;19030;49.478;8.986;2022-10-31T02:03:43;10.70;;;4.95;;
32611;SDS011;19030;49.478;8.986;2022-10-31T02:05:46;15.07;;;4.43;;
32611;SDS011;19030;49.478;8.986;2022-10-31T02:10:03;10.30;;;4.70;;
32611;SDS011;19030;49.478;8.986;2022-10-31T02:12:04;9.52;;;4.32;;
32611;SDS011;19030;49.478;8.986;2022-10-31T02:14:06;10.88;;;4.50;;
32611;SDS011;19030;49.478;8.986;2022-10-31T02:16:08;12.38;;;4.47;;
32611;SDS011;19030;49.478;8.986;2022-10-31T02:18:09;12.40;;;4.50;;
32611;SDS011;19030;49.478;8.986;2022-10-31T02:20:15;9.93;;;4.45;;
32611;SDS011;19030;49.478;8.986;2022-10-31T02:24:42;11.45;;;4.43;;
32611;SDS011;19030;49.478;8.986;2022-10-31T02:26:52;10.80;;;4.60;;
32611;SDS011;19030;49.478;8.986;2022-10-31T02:33:37;11.52;;;3.97;;
32611;SDS011;19030;49.478;8.986;2022-10-31T02:35:42;10.85;;;4.45;;
32611;SDS011;19030;49.478;8.986;2022-10-31T02:45:08;8.60;;;4.40;;
32611;SDS011;19030;49.478;8.986;2022-10-31T02:47:23;14.88;;;4.07;;
32611;SDS011;19030;49.478;8.986;2022-10-31T02:49:33;9.70;;;4.25;;
32611;SDS011;19030;49.478;8.986;2022-10-31T02:51:43;9.82;;;3.90;;
32611;SDS011;19030;49.478;8.986;2022-10-31T02:53:45;10.27;;;5.28;;
32611;SDS011;19030;49.478;8.986;2022-10-31T02:55:50;10.82;;;5.03;;
32611;SDS011;19030;49.478;8.986;2022-10-31T03:00:09;8.07;;;4.40;;
32611;SDS011;19030;49.478;8.986;2022-10-31T03:02:25;14.43;;;5.55;;
32611;SDS011;19030;49.478;8.986;2022-10-31T03:04:40;7.82;;;3.83;;
32611;SDS011;19030;49.478;8.986;2022-10-31T03:09:22;10.48;;;4.05;;
32611;SDS011;19030;49.478;8.986;2022-10-31T03:11:31;9.77;;;4.30;;
32611;SDS011;19030;49.478;8.986;2022-10-31T03:13:51;10.23;;;3.75;;
32611;SDS011;19030;49.478;8.986;2022-10-31T03:19:07;10.57;;;4.15;;
32611;SDS011;19030;49.478;8.986;2022-10-31T03:23:15;11.02;;;4.60;;
32611;SDS011;19030;49.478;8.986;2022-10-31T03:25:23;8.05;;;3.85;;
32611;SDS011;19030;49.478;8.986;2022-10-31T03:27:29;13.15;;;4.25;;
32611;SDS011;19030;49.478;8.986;2022-10-31T03:29:34;11.23;;;3.95;;
32611;SDS011;19030;49.478;8.986;2022-10-31T03:31:40;12.10;;;4.35;;
32611;SDS011;19030;49.478;8.986;2022-10-31T03:33:47;8.77;;;4.30;;
32611;SDS011;19030;49.478;8.986;2022-10-31T03:35:50;10.93;;;4.47;;
32611;SDS011;19030;49.478;8.986;2022-10-31T03:37:55;10.27;;;3.90;;
32611;SDS011;19030;49.478;8.986;2022-10-31T03:40:00;11.75;;;3.92;;
32611;SDS011;19030;49.478;8.986;2022-10-31T03:42:05;11.88;;;4.30;;
32611;SDS011;19030;49.478;8.986;2022-10-31T03:44:14;9.48;;;3.88;;
32611;SDS011;19030;49.478;8.986;2022-10-31T03:46:24;10.93;;;4.25;;
32611;SDS011;19030;49.478;8.986;2022-10-31T03:48:28;11.82;;;4.15;;
32611;SDS011;19030;49.478;8.986;2022-10-31T03:50:31;10.90;;;4.07;;
32611;SDS011;19030;49.478;8.986;2022-10-31T03:59:06;11.05;;;4.13;;
32611;SDS011;19030;49.478;8.986;2022-10-31T04:01:11;12.57;;;4.85;;
32611;SDS011;19030;49.478;8.986;2022-10-31T04:03:24;11.43;;;4.40;;
32611;SDS011;19030;49.478;8.986;2022-10-31T04:05:29;11.23;;;5.22;;
32611;SDS011;19030;49.478;8.986;2022-10-31T04:07:35;11.25;;;3.85;;
32611;SDS011;19030;49.478;8.986;2022-10-31T04:09:42;12.70;;;4.28;;
32611;SDS011;19030;49.478;8.986;2022-10-31T04:11:48;9.95;;;4.07;;
32611;SDS011;19030;49.478;8.986;2022-10-31T04:14:29;11.00;;;3.95;;
32611;SDS011;19030;49.478;8.986;2022-10-31T04:16:32;10.68;;;4.47;;
32611;SDS011;19030;49.478;8.986;2022-10-31T04:18:33;9.02;;;3.78;;
32611;SDS011;19030;49.478;8.986;2022-10-31T04:20:35;9.82;;;3.83;;
32611;SDS011;19030;49.478;8.986;2022-10-31T04:22:37;9.50;;;4.07;;
32611;SDS011;19030;49.478;8.986;2022-10-31T04:24:38;7.70;;;3.63;;
32611;SDS011;19030;49.478;8.986;2022-10-31T04:26:41;10.88;;;4.43;;
32611;SDS011;19030;49.478;8.986;2022-10-31T04:28:42;9.43;;;3.78;;
32611;SDS011;19030;49.478;8.986;2022-10-31T04:30:42;7.53;;;4.10;;
32611;SDS011;19030;49.478;8.986;2022-10-31T04:32:43;9.57;;;4.10;;
32611;SDS011;19030;49.478;8.986;2022-10-31T04:34:43;10.82;;;4.32;;
32611;SDS011;19030;49.478;8.986;2022-10-31T04:36:45;14.27;;;4.47;;
32611;SDS011;19030;49.478;8.986;2022-10-31T04:38:48;12.65;;;4.43;;
32611;SDS011;19030;49.478;8.986;2022-10-31T04:41:03;9.65;;;4.20;;
32611;SDS011;19030;49.478;8.986;2022-10-31T04:43:04;10.15;;;3.90;;
32611;SDS011;19030;49.478;8.986;2022-10-31T04:45:05;10.55;;;4.20;;
32611;SDS011;19030;49.478;8.986;2022-10-31T04:47:07;8.88;;;4.22;;
32611;SDS011;19030;49.478;8.986;2022-10-31T04:49:08;11.32;;;4.13;;
32611;SDS011;19030;49.478;8.986;2022-10-31T04:51:09;10.80;;;4.30;;
32611;SDS011;19030;49.478;8.986;2022-10-31T04:53:10;10.90;;;4.28;;
32611;SDS011;19030;49.478;8.986;2022-10-31T04:55:27;10.85;;;4.55;;
32611;SDS011;19030;49.478;8.986;2022-10-31T04:57:47;9.13;;;4.13;;
32611;SDS011;19030;49.478;8.986;2022-10-31T04:59:50;10.43;;;3.90;;
32611;SDS011;19030;49.478;8.986;2022-10-31T05:01:51;8.88;;;4.13;;
32611;SDS011;19030;49.478;8.986;2022-10-31T05:03:58;10.65;;;4.65;;
32611;SDS011;19030;49.478;8.986;2022-10-31T05:05:59;12.05;;;4.10;;
32611;SDS011;19030;49.478;8.986;2022-10-31T05:08:01;9.85;;;4.32;;
32611;SDS011;19030;49.478;8.986;2022-10-31T05:10:04;10.88;;;3.83;;
32611;SDS011;19030;49.478;8.986;2022-10-31T05:12:06;10.73;;;4.68;;
32611;SDS011;19030;49.478;8.986;2022-10-31T05:14:41;12.60;;;4.70;;
32611;SDS011;19030;49.478;8.986;2022-10-31T05:17:00;11.48;;;4.20;;
32611;SDS011;19030;49.478;8.986;2022-10-31T05:19:20;11.00;;;5.38;;
32611;SDS011;19030;49.478;8.986;2022-10-31T05:21:40;11.02;;;4.13;;
32611;SDS011;19030;49.478;8.986;2022-10-31T05:23:42;15.98;;;4.80;;
32611;SDS011;19030;49.478;8.986;2022-10-31T05:25:42;14.77;;;4.68;;
32611;SDS011;19030;49.478;8.986;2022-10-31T05:27:47;8.40;;;4.53;;
32611;SDS011;19030;49.478;8.986;2022-10-31T05:29:50;11.90;;;4.70;;
32611;SDS011;19030;49.478;8.986;2022-10-31T05:31:51;11.43;;;4.13;;
32611;SDS011;19030;49.478;8.986;2022-10-31T05:34:11;9.68;;;4.18;;
32611;SDS011;19030;49.478;8.986;2022-10-31T05:36:39;8.70;;;3.70;;
32611;SDS011;19030;49.478;8.986;2022-10-31T05:38:49;14.45;;;4.10;;
32611;SDS011;19030;49.478;8.986;2022-10-31T05:41:02;9.13;;;3.95;;
32611;SDS011;19030;49.478;8.986;2022-10-31T05:43:06;8.55;;;4.43;;
32611;SDS011;19030;49.478;8.986;2022-10-31T05:45:07;14.07;;;4.43;;
32611;SDS011;19030;49.478;8.986;2022-10-31T05:47:20;16.20;;;4.68;;
32611;SDS011;19030;49.478;8.986;2022-10-31T05:49:44;7.80;;;4.15;;
32611;SDS011;19030;49.478;8.986;2022-10-31T05:52:04;10.27;;;4.10;;
32611;SDS011;19030;49.478;8.986;2022-10-31T05:54:13;9.35;;;4.10;;
32611;SDS011;19030;49.478;8.986;2022-10-31T05:56:14;12.38;;;4.60;;
32611;SDS011;19030;49.478;8.986;2022-10-31T05:58:15;10.48;;;4.20;;
32611;SDS011;19030;49.478;8.986;2022-10-31T06:00:23;11.40;;;4.68;;
32611;SDS011;19030;49.478;8.986;2022-10-31T06:02:25;10.85;;;4.40;;
32611;SDS011;19030;49.478;8.986;2022-10-31T06:04:53;11.13;;;4.68;;
32611;SDS011;19030;49.478;8.986;2022-10-31T06:06:53;13.85;;;4.38;;
32611;SDS011;19030;49.478;8.986;2022-10-31T06:08:54;14.50;;;4.40;;
32611;SDS011;19030;49.478;8.986;2022-10-31T06:10:56;8.60;;;4.63;;
32611;SDS011;19030;49.478;8.986;2022-10-31T06:13:17;12.13;;;4.97;;
32611;SDS011;19030;49.478;8.986;2022-10-31T06:15:21;15.32;;;5.13;;
32611;SDS011;19030;49.478;8.986;2022-10-31T06:17:22;11.00;;;4.40;;
32611;SDS011;19030;49.478;8.986;2022-10-31T06:19:23;9.55;;;4.45;;
32611;SDS011;19030;49.478;8.986;2022-10-31T06:21:24;8.60;;;4.07;;
32611;SDS011;19030;49.478;8.986;2022-10-31T06:23:25;8.77;;;4.05;;
32611;SDS011;19030;49.478;8.986;2022-10-31T06:27:45;13.85;;;4.57;;
32611;SDS011;19030;49.478;8.986;2022-10-31T06:29:48;12.25;;;4.50;;
32611;SDS011;19030;49.478;8.986;2022-10-31T06:32:09;11.35;;;4.93;;
32611;SDS011;19030;49.478;8.986;2022-10-31T06:34:14;10.65;;;4.03;;
32611;SDS011;19030;49.478;8.986;2022-10-31T06:36:15;13.68;;;5.05;;
32611;SDS011;19030;49.478;8.986;2022-10-31T06:38:16;12.48;;;5.80;;
32611;SDS011;19030;49.478;8.986;2022-10-31T06:40:16;18.33;;;7.25;;
32611;SDS011;19030;49.478;8.986;2022-10-31T06:42:37;14.40;;;8.05;;
32611;SDS011;19030;49.478;8.986;2022-10-31T06:44:38;17.95;;;9.65;;
32611;SDS011;19030;49.478;8.986;2022-10-31T06:46:57;15.68;;;8.23;;
32611;SDS011;19030;49.478;8.986;2022-10-31T06:49:09;13.18;;;6.97;;
32611;SDS011;19030;49.478;8.986;2022-10-31T06:51:23;13.10;;;7.00;;
32611;SDS011;19030;49.478;8.986;2022-10-31T06:53:25;14.88;;;6.00;;
32611;SDS011;19030;49.478;8.986;2022-10-31T06:55:26;12.77;;;5.05;;
32611;SDS011;19030;49.478;8.986;2022-10-31T06:57:27;10.38;;;4.72;;
32611;SDS011;19030;49.478;8.986;2022-10-31T06:59:29;11.00;;;5.10;;
32611;SDS011;19030;49.478;8.986;2022-10-31T07:01:48;14.13;;;5.00;;
32611;SDS011;19030;49.478;8.986;2022-10-31T07:03:49;15.57;;;5.68;;
32611;SDS011;19030;49.478;8.986;2022-10-31T07:05:49;14.07;;;6.80;;
32611;SDS011;19030;49.478;8.986;2022-10-31T07:07:51;13.60;;;6.45;;
32611;SDS011;19030;49.478;8.986;2022-10-31T07:09:56;12.90;;;7.00;;
32611;SDS011;19030;49.478;8.986;2022-10-31T07:12:12;17.90;;;5.72;;
32611;SDS011;19030;49.478;8.986;2022-10-31T07:14:22;11.50;;;5.53;;
32611;SDS011;19030;49.478;8.986;2022-10-31T07:16:24;12.35;;;4.97;;
32611;SDS011;19030;49.478;8.986;2022-10-31T07:18:25;19.25;;;6.00;;
32611;SDS011;19030;49.478;8.986;2022-10-31T07:20:26;17.50;;;5.72;;
32611;SDS011;19030;49.478;8.986;2022-10-31T07:22:37;9.13;;;5.03;;
32611;SDS011;19030;49.478;8.986;2022-10-31T07:24:40;12.02;;;5.72;;
32611;SDS011;19030;49.478;8.986;2022-10-31T07:26:59;12.45;;;4.63;;
32611;SDS011;19030;49.478;8.986;2022-10-31T07:29:00;10.20;;;4.55;;
32611;SDS011;19030;49.478;8.986;2022-10-31T07:31:02;9.77;;;4.40;;
32611;SDS011;19030;49.478;8.986;2022-10-31T07:33:04;10.55;;;4.80;;
32611;SDS011;19030;49.478;8.986;2022-10-31T07:35:34;13.77;;;5.10;;
32611;SDS011;19030;49.478;8.986;2022-10-31T07:37:35;11.80;;;4.90;;
32611;SDS011;19030;49.478;8.986;2022-10-31T07:39:36;18.33;;;5.20;;
32611;SDS011;19030;49.478;8.986;2022-10-31T07:41:36;12.57;;;4.90;;
32611;SDS011;19030;49.478;8.986;2022-10-31T07:43:37;15.63;;;4.80;;
32611;SDS011;19030;49.478;8.986;2022-10-31T07:45:57;9.90;;;4.53;;
32611;SDS011;19030;49.478;8.986;2022-10-31T07:48:16;11.70;;;4.85;;
32611;SDS011;19030;49.478;8.986;2022-10-31T07:50:36;10.23;;;4.30;;
32611;SDS011;19030;49.478;8.986;2022-10-31T07:52:58;11.65;;;4.85;;
32611;SDS011;19030;49.478;8.986;2022-10-31T07:55:11;14.82;;;4.57;;
32611;SDS011;19030;49.478;8.986;2022-10-31T07:57:12;13.45;;;4.35;;
32611;SDS011;19030;49.478;8.986;2022-10-31T07:59:13;16.30;;;5.53;;
32611;SDS011;19030;49.478;8.986;2022-10-31T08:01:14;11.90;;;5.07;;
32611;SDS011;19030;49.478;8.986;2022-10-31T08:03:22;12.93;;;4.45;;
32611;SDS011;19030;49.478;8.986;2022-10-31T08:05:42;15.23;;;4.40;;
32611;SDS011;19030;49.478;8.986;2022-10-31T08:08:02;14.85;;;4.80;;
32611;SDS011;19030;49.478;8.986;2022-10-31T08:10:04;11.15;;;4.35;;
32611;SDS011;19030;49.478;8.986;2022-10-31T08:12:05;10.63;;;4.68;;
32611;SDS011;19030;49.478;8.986;2022-10-31T08:14:08;14.48;;;5.30;;
32611;SDS011;19030;49.478;8.986;2022-10-31T08:16:08;13.38;;;4.65;;
32611;SDS011;19030;49.478;8.986;2022-10-31T08:18:16;7.90;;;4.20;;
32611;SDS011;19030;49.478;8.986;2022-10-31T08:20:18;9.00;;;4.75;;
32611;SDS011;19030;49.478;8.986;2022-10-31T08:22:20;10.70;;;4.60;;
32611;SDS011;19030;49.478;8.986;2022-10-31T08:24:23;12.60;;;4.60;;
32611;SDS011;19030;49.478;8.986;2022-10-31T08:26:24;24.05;;;5.18;;
32611;SDS011;19030;49.478;8.986;2022-10-31T08:28:27;12.40;;;4.07;;
32611;SDS011;19030;49.478;8.986;2022-10-31T08:30:30;19.85;;;4.30;;
32611;SDS011;19030;49.478;8.986;2022-10-31T08:33:00;9.20;;;4.20;;
32611;SDS011;19030;49.478;8.986;2022-10-31T08:35:35;12.70;;;4.63;;
32611;SDS011;19030;49.478;8.986;2022-10-31T08:37:54;15.63;;;4.80;;
32611;SDS011;19030;49.478;8.986;2022-10-31T08:39:58;11.40;;;4.50;;
32611;SDS011;19030;49.478;8.986;2022-10-31T08:41:58;14.32;;;4.50;;
32611;SDS011;19030;49.478;8.986;2022-10-31T08:43:59;15.15;;;4.93;;
32611;SDS011;19030;49.478;8.986;2022-10-31T08:45:59;14.93;;;5.90;;
32611;SDS011;19030;49.478;8.986;2022-10-31T08:48:03;16.25;;;5.03;;
32611;SDS011;19030;49.478;8.986;2022-10-31T08:50:06;17.17;;;5.50;;
32611;SDS011;19030;49.478;8.986;2022-10-31T08:52:08;14.00;;;4.85;;
32611;SDS011;19030;49.478;8.986;2022-10-31T08:54:13;12.15;;;4.85;;
32611;SDS011;19030;49.478;8.986;2022-10-31T08:56:28;11.90;;;5.10;;
32611;SDS011;19030;49.478;8.986;2022-10-31T08:58:29;10.60;;;4.45;;
32611;SDS011;19030;49.478;8.986;2022-10-31T09:00:35;12.05;;;4.80;;
32611;SDS011;19030;49.478;8.986;2022-10-31T09:02:54;15.25;;;5.40;;
32611;SDS011;19030;49.478;8.986;2022-10-31T09:04:58;13.07;;;4.80;;
32611;SDS011;19030;49.478;8.986;2022-10-31T09:06:59;16.33;;;6.72;;
32611;SDS011;19030;49.478;8.986;2022-10-31T09:09:00;14.70;;;5.00;;
32611;SDS011;19030;49.478;8.986;2022-10-31T09:11:01;18.38;;;5.88;;
32611;SDS011;19030;49.478;8.986;2022-10-31T09:13:27;14.73;;;4.60;;
32611;SDS011;19030;49.478;8.986;2022-10-31T09:16:00;15.43;;;5.20;;
32611;SDS011;19030;49.478;8.986;2022-10-31T09:18:01;17.17;;;5.97;;
32611;SDS011;19030;49.478;8.986;2022-10-31T09:20:11;11.07;;;5.20;;
32611;SDS011;19030;49.478;8.986;2022-10-31T09:22:12;13.43;;;5.30;;
32611;SDS011;19030;49.478;8.986;2022-10-31T09:24:13;10.02;;;4.55;;
32611;SDS011;19030;49.478;8.986;2022-10-31T09:26:16;10.68;;;5.32;;
32611;SDS011;19030;49.478;8.986;2022-10-31T09:28:29;13.05;;;6.00;;
32611;SDS011;19030;49.478;8.986;2022-10-31T09:30:34;10.00;;;4.82;;
32611;SDS011;19030;49.478;8.986;2022-10-31T09:32:35;11.80;;;5.63;;
32611;SDS011;19030;49.478;8.986;2022-10-31T09:34:39;26.67;;;6.63;;
32611;SDS011;19030;49.478;8.986;2022-10-31T09:36:43;18.05;;;6.63;;
32611;SDS011;19030;49.478;8.986;2022-10-31T09:38:51;14.25;;;5.80;;
32611;SDS011;19030;49.478;8.986;2022-10-31T09:45:18;12.25;;;6.93;;
32611;SDS011;19030;49.478;8.986;2022-10-31T09:50:13;11.38;;;6.30;;
32611;SDS011;19030;49.478;8.986;2022-10-31T09:52:25;10.70;;;5.55;;
32611;SDS011;19030;49.478;8.986;2022-10-31T09:54:38;10.40;;;6.07;;
32611;SDS011;19030;49.478;8.986;2022-10-31T09:56:46;15.45;;;6.50;;
32611;SDS011;19030;49.478;8.986;2022-10-31T09:58:48;14.15;;;5.72;;
32611;SDS011;19030;49.478;8.986;2022-10-31T10:00:59;10.80;;;5.82;;
32611;SDS011;19030;49.478;8.986;2022-10-31T10:03:06;14.10;;;6.95;;
32611;SDS011;19030;49.478;8.986;2022-10-31T10:05:26;13.93;;;7.33;;
32611;SDS011;19030;49.478;8.986;2022-10-31T10:07:38;13.38;;;7.13;;
32611;SDS011;19030;49.478;8.986;2022-10-31T10:10:29;15.57;;;9.60;;
32611;SDS011;19030;49.478;8.986;2022-10-31T10:17:56;17.23;;;11.82;;
32611;SDS011;19030;49.478;8.986;2022-10-31T10:29:44;14.65;;;5.65;;
32611;SDS011;19030;49.478;8.986;2022-10-31T10:31:50;12.48;;;5.55;;
32611;SDS011;19030;49.478;8.986;2022-10-31T10:34:00;13.02;;;5.32;;
32611;SDS011;19030;49.478;8.986;2022-10-31T10:38:34;14.27;;;5.72;;
32611;SDS011;19030;49.478;8.986;2022-10-31T10:40:38;12.45;;;7.55;;
32611;SDS011;19030;49.478;8.986;2022-10-31T10:42:39;14.43;;;5.90;;
32611;SDS011;19030;49.478;8.986;2022-10-31T10:44:59;13.30;;;5.97;;
32611;SDS011;19030;49.478;8.986;2022-10-31T10:47:19;12.38;;;5.20;;
32611;SDS011;19030;49.478;8.986;2022-10-31T10:49:51;12.50;;;5.60;;
32611;SDS011;19030;49.478;8.986;2022-10-31T10:52:30;18.25;;;8.93;;
32611;SDS011;19030;49.478;8.986;2022-10-31T10:57:32;10.93;;;5.43;;
32611;SDS011;19030;49.478;8.986;2022-10-31T10:59:57;15.98;;;6.45;;
32611;SDS011;19030;49.478;8.986;2022-10-31T11:02:00;14.18;;;6.20;;
32611;SDS011;19030;49.478;8.986;2022-10-31T11:04:02;15.43;;;8.07;;
32611;SDS011;19030;49.478;8.986;2022-10-31T11:06:18;20.10;;;6.82;;
32611;SDS011;19030;49.478;8.986;2022-10-31T11:08:32;12.63;;;5.80;;
32611;SDS011;19030;49.478;8.986;2022-10-31T11:10:34;16.35;;;6.45;;
32611;SDS011;19030;49.478;8.986;2022-10-31T11:12:35;12.57;;;6.18;;
32611;SDS011;19030;49.478;8.986;2022-10-31T11:14:42;13.68;;;5.35;;
32611;SDS011;19030;49.478;8.986;2022-10-31T11:16:50;10.57;;;5.28;;
32611;SDS011;19030;49.478;8.986;2022-10-31T11:19:04;14.60;;;5.60;;
32611;SDS011;19030;49.478;8.986;2022-10-31T11:21:27;15.70;;;6.05;;
32611;SDS011;19030;49.478;8.986;2022-10-31T11:23:29;13.88;;;6.55;;
32611;SDS011;19030;49.478;8.986;2022-10-31T11:25:31;16.35;;;5.53;;
32611;SDS011;19030;49.478;8.986;2022-10-31T11:27:31;12.15;;;5.35;;
32611;SDS011;19030;49.478;8.986;2022-10-31T11:29:32;14.02;;;5.70;;
32611;SDS011;19030;49.478;8.986;2022-10-31T11:31:35;11.35;;;5.30;;
32611;SDS011;19030;49.478;8.986;2022-10-31T11:33:38;16.67;;;5.82;;
32611;SDS011;19030;49.478;8.986;2022-10-31T11:35:42;14.93;;;6.15;;
32611;SDS011;19030;49.478;8.986;2022-10-31T11:37:43;10.85;;;5.80;;
32611;SDS011;19030;49.478;8.986;2022-10-31T11:39:47;15.75;;;5.55;;
32611;SDS011;19030;49.478;8.986;2022-10-31T11:41:53;14.13;;;5.20;;
32611;SDS011;19030;49.478;8.986;2022-10-31T11:45:57;15.00;;;5.35;;
32611;SDS011;19030;49.478;8.986;2022-10-31T11:47:58;13.57;;;4.68;;
32611;SDS011;19030;49.478;8.986;2022-10-31T11:50:01;17.13;;;5.00;;
32611;SDS011;19030;49.478;8.986;2022-10-31T11:52:17;11.02;;;4.60;;
32611;SDS011;19030;49.478;8.986;2022-10-31T11:56:42;14.65;;;5.72;;
32611;SDS011;19030;49.478;8.986;2022-10-31T11:58:43;11.02;;;5.25;;
32611;SDS011;19030;49.478;8.986;2022-10-31T12:00:47;11.35;;;5.38;;
32611;SDS011;19030;49.478;8.986;2022-10-31T12:03:42;14.43;;;5.57;;
32611;SDS011;19030;49.478;8.986;2022-10-31T12:07:23;12.10;;;4.80;;
32611;SDS011;19030;49.478;8.986;2022-10-31T12:09:25;17.20;;;5.57;;
32611;SDS011;19030;49.478;8.986;2022-10-31T12:11:37;25.30;;;7.40;;
32611;SDS011;19030;49.478;8.986;2022-10-31T12:16:22;12.43;;;5.68;;
32611;SDS011;19030;49.478;8.986;2022-10-31T12:18:50;14.23;;;5.47;;
32611;SDS011;19030;49.478;8.986;2022-10-31T12:21:11;11.85;;;5.10;;
32611;SDS011;19030;49.478;8.986;2022-10-31T12:43:46;14.10;;;5.72;;
32611;SDS011;19030;49.478;8.986;2022-10-31T12:45:58;13.20;;;6.13;;
32611;SDS011;19030;49.478;8.986;2022-10-31T12:48:19;10.77;;;4.78;;
32611;SDS011;19030;49.478;8.986;2022-10-31T12:57:51;14.23;;;5.38;;
32611;SDS011;19030;49.478;8.986;2022-10-31T13:00:04;10.88;;;5.13;;
32611;SDS011;19030;49.478;8.986;2022-10-31T13:06:31;15.75;;;5.00;;
32611;SDS011;19030;49.478;8.986;2022-10-31T13:08:38;12.00;;;5.18;;
32611;SDS011;19030;49.478;8.986;2022-10-31T13:13:05;12.70;;;5.32;;
32611;SDS011;19030;49.478;8.986;2022-10-31T13:15:24;11.52;;;5.05;;
32611;SDS011;19030;49.478;8.986;2022-10-31T13:17:37;10.48;;;5.22;;
32611;SDS011;19030;49.478;8.986;2022-10-31T13:19:42;12.63;;;5.40;;
32611;SDS011;19030;49.478;8.986;2022-10-31T13:23:55;10.25;;;4.78;;
32611;SDS011;19030;49.478;8.986;2022-10-31T13:26:03;14.68;;;5.50;;
32611;SDS011;19030;49.478;8.986;2022-10-31T13:28:28;13.15;;;5.57;;
32611;SDS011;19030;49.478;8.986;2022-10-31T13:30:38;14.43;;;4.88;;
32611;SDS011;19030;49.478;8.986;2022-10-31T13:32:41;12.60;;;5.45;;
32611;SDS011;19030;49.478;8.986;2022-10-31T13:34:45;14.02;;;5.50;;
32611;SDS011;19030;49.478;8.986;2022-10-31T13:36:55;15.82;;;5.35;;
32611;SDS011;19030;49.478;8.986;2022-10-31T13:39:03;8.90;;;4.82;;
32611;SDS011;19030;49.478;8.986;2022-10-31T13:41:27;17.90;;;5.65;;
32611;SDS011;19030;49.478;8.986;2022-10-31T13:46:23;11.35;;;5.60;;
32611;SDS011;19030;49.478;8.986;2022-10-31T13:50:34;15.15;;;5.28;;
32611;SDS011;19030;49.478;8.986;2022-10-31T13:52:35;11.80;;;5.50;;
32611;SDS011;19030;49.478;8.986;2022-10-31T13:54:38;12.10;;;5.75;;
32611;SDS011;19030;49.478;8.986;2022-10-31T13:56:39;9.90;;;5.35;;
32611;SDS011;19030;49.478;8.986;2022-10-31T13:58:40;17.10;;;6.57;;
32611;SDS011;19030;49.478;8.986;2022-10-31T14:00:58;15.65;;;6.03;;
32611;SDS011;19030;49.478;8.986;2022-10-31T14:03:16;9.75;;;5.53;;
32611;SDS011;19030;49.478;8.986;2022-10-31T14:05:52;18.70;;;5.72;;
32611;SDS011;19030;49.478;8.986;2022-10-31T14:07:52;12.95;;;5.53;;
32611;SDS011;19030;49.478;8.986;2022-10-31T14:10:04;9.35;;;5.00;;
32611;SDS011;19030;49.478;8.986;2022-10-31T14:12:37;12.90;;;5.40;;
32611;SDS011;19030;49.478;8.986;2022-10-31T14:14:47;15.63;;;6.05;;
32611;SDS011;19030;49.478;8.986;2022-10-31T14:16:57;15.80;;;6.07;;
32611;SDS011;19030;49.478;8.986;2022-10-31T14:19:04;15.80;;;6.40;;
32611;SDS011;19030;49.478;8.986;2022-10-31T14:23:36;12.85;;;6.82;;
32611;SDS011;19030;49.478;8.986;2022-10-31T14:25:40;14.45;;;6.07;;
32611;SDS011;19030;49.478;8.986;2022-10-31T14:27:45;13.90;;;6.00;;
32611;SDS011;19030;49.478;8.986;2022-10-31T14:29:46;13.43;;;6.50;;
32611;SDS011;19030;49.478;8.986;2022-10-31T14:31:54;13.60;;;5.85;;
32611;SDS011;19030;49.478;8.986;2022-10-31T14:36:50;13.45;;;6.00;;